Berwyn, New York
Current Conditions -  °F | °C
As of 12:54 AM on Wednesday 22 Oct 2014 (Local Time) from KSYR Reporting Station
Overcast Overcast  
Wind Chill: 10°   Ceiling: 2500
Heat Index: 10°   Visibility: 7mi
Dew Point:   Wind: 6mph
Humidity: 92%   Direction: 360°N
Pressure: 30.03"   Gusts: NA
Location:  42.8894°N, 76.1084°W
Report Text: KSYR 220454Z 36005KT 7SM FEW006 SCT009 OVC025 10/09 A3003 RMK SLP168 T01020089 401170089
Loading
Personal Weather Stations






























Interactive Weather Map
Tropical Storm Tracking
New forecast layout! Learn more

10-Day Weather Forecast

Advertisements
Track Severe Weather on mobile